createdAt,value
2022-12-16T00:01:50.991Z,15.80
2022-12-16T00:04:39.293Z,14.80
2022-12-16T00:07:26.648Z,15.50
2022-12-16T00:10:14.067Z,17.03
2022-12-16T00:13:04.758Z,14.83
2022-12-16T00:15:56.343Z,14.70
2022-12-16T00:18:43.765Z,16.13
2022-12-16T00:21:31.156Z,15.33
2022-12-16T00:24:18.523Z,15.77
2022-12-16T00:27:05.936Z,15.97
2022-12-16T00:29:53.288Z,16.03
2022-12-16T00:32:41.190Z,15.27
2022-12-16T00:35:30.371Z,14.30
2022-12-16T00:38:17.723Z,15.63
2022-12-16T00:41:05.121Z,15.23
2022-12-16T00:43:52.553Z,15.67
2022-12-16T00:46:40.105Z,15.70
2022-12-16T00:49:27.484Z,15.60
2022-12-16T00:52:14.810Z,14.57
2022-12-16T00:55:02.652Z,15.37
2022-12-16T00:57:50.046Z,15.47
2022-12-16T01:00:39.263Z,16.30
2022-12-16T01:03:26.704Z,17.07
2022-12-16T01:06:15.598Z,16.90
2022-12-16T01:09:02.942Z,16.47
2022-12-16T01:11:50.337Z,15.73
2022-12-16T01:14:37.867Z,15.83
2022-12-16T01:17:25.993Z,15.40
2022-12-16T01:20:14.159Z,14.47
2022-12-16T01:23:01.520Z,15.70
2022-12-16T01:25:50.775Z,15.20
2022-12-16T01:28:38.118Z,15.57
2022-12-16T01:31:25.603Z,15.93
2022-12-16T01:34:13.017Z,14.53
2022-12-16T01:37:00.343Z,14.73
2022-12-16T01:39:49.077Z,16.10
2022-12-16T01:42:36.441Z,15.67
2022-12-16T01:45:31.391Z,15.30
2022-12-16T01:48:25.629Z,16.93
2022-12-16T01:51:52.419Z,16.47
2022-12-16T01:54:49.023Z,16.03
2022-12-16T01:57:43.458Z,16.50
2022-12-16T02:00:30.895Z,16.70
2022-12-16T02:03:18.241Z,18.80
2022-12-16T02:06:06.950Z,17.57
2022-12-16T02:08:56.300Z,17.77
2022-12-16T02:12:22.104Z,17.83
2022-12-16T02:15:21.653Z,17.43
2022-12-16T02:18:08.955Z,17.67
2022-12-16T02:20:56.280Z,18.20
2022-12-16T02:24:10.495Z,17.47
2022-12-16T02:27:18.893Z,17.57
2022-12-16T02:30:08.982Z,17.00
2022-12-16T02:33:14.667Z,18.73
2022-12-16T02:36:04.907Z,16.70
2022-12-16T02:39:10.624Z,16.93
2022-12-16T02:42:07.111Z,17.10
2022-12-16T02:45:00.517Z,17.13
2022-12-16T02:47:48.677Z,18.43
2022-12-16T02:50:47.645Z,17.10
2022-12-16T02:53:36.879Z,16.93
2022-12-16T02:56:24.959Z,17.37
2022-12-16T02:59:12.303Z,17.73
2022-12-16T03:02:08.760Z,16.73
2022-12-16T03:05:01.993Z,17.30
2022-12-16T03:07:50.705Z,16.83
2022-12-16T03:10:45.045Z,17.70
2022-12-16T03:13:35.680Z,17.63
2022-12-16T03:16:25.234Z,17.00
2022-12-16T03:19:13.461Z,16.43
2022-12-16T03:22:03.635Z,14.73
2022-12-16T03:24:51.021Z,15.00
2022-12-16T03:27:41.283Z,16.27
2022-12-16T03:30:33.491Z,16.40
2022-12-16T03:33:33.266Z,16.27
2022-12-16T03:36:22.740Z,15.47
2022-12-16T03:39:10.938Z,16.53
2022-12-16T03:41:59.035Z,14.17
2022-12-16T03:44:47.302Z,15.93
2022-12-16T03:47:34.695Z,15.53
2022-12-16T03:50:24.318Z,15.17
2022-12-16T03:53:11.690Z,16.40
2022-12-16T03:55:59.027Z,15.70
2022-12-16T03:58:46.935Z,14.60
2022-12-16T04:01:34.338Z,15.93
2022-12-16T04:04:21.840Z,15.97
2022-12-16T04:07:21.192Z,15.43
2022-12-16T04:10:08.908Z,14.70
2022-12-16T04:13:14.797Z,15.87
2022-12-16T04:16:21.209Z,16.00
2022-12-16T04:19:32.487Z,15.00
2022-12-16T04:22:58.460Z,14.87
2022-12-16T04:25:46.108Z,13.90
2022-12-16T04:28:33.528Z,16.30
2022-12-16T04:31:20.906Z,14.57
2022-12-16T04:34:26.514Z,15.43
2022-12-16T04:37:32.466Z,15.60
2022-12-16T04:40:42.850Z,13.33
2022-12-16T04:43:48.537Z,14.00
2022-12-16T04:46:54.650Z,15.63
2022-12-16T04:50:00.710Z,20.50
2022-12-16T04:53:09.404Z,15.43
2022-12-16T04:56:15.623Z,14.87
2022-12-16T04:59:26.055Z,13.60
2022-12-16T05:02:32.131Z,14.87
2022-12-16T05:05:38.134Z,13.07
2022-12-16T05:08:43.694Z,12.53
2022-12-16T05:11:49.557Z,12.87
2022-12-16T05:14:55.753Z,13.40
2022-12-16T05:18:01.834Z,12.97
2022-12-16T05:21:07.880Z,13.17
2022-12-16T05:24:13.907Z,13.83
2022-12-16T05:27:20.180Z,13.23
2022-12-16T05:30:31.977Z,14.33
2022-12-16T05:33:39.586Z,13.63
2022-12-16T05:36:45.717Z,13.43
2022-12-16T05:39:51.835Z,12.63
2022-12-16T05:42:57.990Z,13.17
2022-12-16T05:46:04.225Z,14.07
2022-12-16T05:49:10.275Z,25.27
2022-12-16T05:52:16.180Z,35.63
2022-12-16T05:55:22.518Z,22.93
2022-12-16T05:58:28.557Z,27.88
2022-12-16T06:01:34.797Z,20.90
2022-12-16T06:04:41.305Z,19.33
2022-12-16T06:07:47.654Z,17.80
2022-12-16T06:10:53.931Z,15.23
2022-12-16T06:14:00.314Z,14.47
2022-12-16T06:17:06.793Z,14.50
2022-12-16T06:20:12.942Z,12.23
2022-12-16T06:23:23.983Z,13.83
2022-12-16T06:26:31.680Z,13.50
2022-12-16T06:29:37.718Z,12.70
2022-12-16T06:32:44.067Z,13.43
2022-12-16T06:35:50.411Z,12.80
2022-12-16T06:39:10.239Z,13.53
2022-12-16T06:42:16.056Z,12.37
2022-12-16T06:45:22.124Z,13.03
2022-12-16T06:48:28.074Z,13.67
2022-12-16T06:51:34.219Z,12.43
2022-12-16T06:54:40.142Z,12.60
2022-12-16T06:57:46.200Z,13.73
2022-12-16T07:00:52.480Z,12.67
2022-12-16T07:03:58.243Z,13.80
2022-12-16T07:07:04.467Z,13.23
2022-12-16T07:10:10.311Z,13.27
2022-12-16T07:13:16.878Z,14.03
2022-12-16T07:16:22.757Z,13.53
2022-12-16T07:19:28.655Z,13.13
2022-12-16T07:22:34.797Z,14.70
2022-12-16T07:25:40.847Z,13.73
2022-12-16T07:28:47.196Z,14.17
2022-12-16T07:31:53.585Z,13.53
2022-12-16T07:34:59.998Z,15.50
2022-12-16T07:38:06.228Z,14.40
2022-12-16T07:41:12.465Z,15.90
2022-12-16T07:44:18.814Z,14.47
2022-12-16T07:47:25.094Z,15.60
2022-12-16T07:50:31.279Z,15.90
2022-12-16T07:53:37.770Z,16.10
2022-12-16T07:56:44.418Z,15.13
2022-12-16T07:59:50.311Z,14.67
2022-12-16T08:02:56.427Z,13.87
2022-12-16T08:06:02.496Z,15.20
2022-12-16T08:09:08.618Z,15.20
2022-12-16T08:12:14.559Z,16.47
2022-12-16T08:15:20.863Z,15.30
2022-12-16T08:18:26.961Z,15.50
2022-12-16T08:21:33.296Z,16.27
2022-12-16T08:24:39.254Z,16.37
2022-12-16T08:27:45.499Z,16.13
2022-12-16T08:30:51.426Z,15.90
2022-12-16T08:33:58.463Z,15.30
2022-12-16T08:37:04.738Z,17.47
2022-12-16T08:40:34.316Z,15.43
2022-12-16T08:43:37.323Z,16.93
2022-12-16T08:46:43.508Z,17.13
2022-12-16T08:49:49.987Z,17.43
2022-12-16T08:52:57.820Z,17.10
2022-12-16T08:56:03.990Z,16.90
2022-12-16T08:59:09.888Z,17.23
2022-12-16T09:02:16.364Z,18.70
2022-12-16T09:05:22.843Z,17.20
2022-12-16T09:08:39.668Z,17.70
2022-12-16T09:11:45.812Z,18.13
2022-12-16T09:14:51.777Z,19.93
2022-12-16T09:17:57.779Z,18.20
2022-12-16T09:21:03.630Z,18.00
2022-12-16T09:24:09.582Z,19.57
2022-12-16T09:27:15.591Z,18.77
2022-12-16T09:30:21.335Z,17.87
2022-12-16T09:33:27.268Z,18.90
2022-12-16T09:36:33.219Z,19.00
2022-12-16T09:39:39.095Z,20.27
2022-12-16T09:42:53.241Z,19.97
2022-12-16T09:46:26.761Z,19.33
2022-12-16T09:49:38.207Z,20.43
2022-12-16T09:52:58.104Z,19.70
2022-12-16T09:56:05.394Z,19.67
2022-12-16T09:59:18.638Z,19.80
2022-12-16T10:02:30.044Z,19.23
2022-12-16T10:05:41.004Z,19.73
2022-12-16T10:08:58.908Z,20.27
2022-12-16T10:12:04.760Z,19.67
2022-12-16T10:15:22.075Z,20.10
2022-12-16T10:18:36.731Z,19.50
2022-12-16T10:21:48.873Z,20.53
2022-12-16T10:25:03.629Z,20.87
2022-12-16T10:28:09.779Z,19.83
2022-12-16T10:31:16.152Z,20.27
2022-12-16T10:34:22.704Z,21.83
2022-12-16T10:37:33.149Z,19.77
2022-12-16T10:40:42.284Z,21.27
2022-12-16T10:43:53.331Z,21.20
2022-12-16T10:47:01.590Z,22.20
2022-12-16T10:50:08.138Z,21.20
2022-12-16T10:53:30.404Z,22.30
2022-12-16T10:56:42.302Z,21.03
2022-12-16T10:59:56.016Z,21.63
2022-12-16T11:03:02.216Z,23.23
2022-12-16T11:06:08.846Z,22.80
2022-12-16T11:09:14.981Z,24.97
2022-12-16T11:12:53.260Z,23.77
2022-12-16T11:16:04.591Z,22.27
2022-12-16T11:19:11.134Z,22.77
2022-12-16T11:22:25.227Z,23.17
2022-12-16T11:25:33.544Z,23.83
2022-12-16T11:28:39.715Z,25.70
2022-12-16T11:31:46.016Z,26.73
2022-12-16T11:34:52.571Z,26.10
2022-12-16T11:38:00.822Z,24.37
2022-12-16T11:41:08.621Z,24.27
2022-12-16T11:44:15.092Z,24.33
2022-12-16T11:47:21.259Z,25.87
2022-12-16T11:50:33.339Z,25.23
2022-12-16T11:53:42.173Z,23.47
2022-12-16T11:56:53.887Z,25.07
2022-12-16T12:00:01.361Z,26.13
2022-12-16T12:03:07.612Z,25.63
2022-12-16T12:06:32.841Z,25.53
2022-12-16T12:09:42.651Z,24.53
2022-12-16T12:12:53.171Z,25.40
2022-12-16T12:16:05.362Z,25.07
2022-12-16T12:19:24.907Z,25.47
2022-12-16T12:22:41.402Z,24.43
2022-12-16T12:25:51.770Z,23.30
2022-12-16T12:29:04.169Z,24.83
2022-12-16T12:32:26.651Z,22.97
2022-12-16T12:35:47.936Z,23.33
2022-12-16T12:39:06.288Z,24.23
2022-12-16T12:42:12.691Z,24.43
2022-12-16T12:45:36.459Z,25.43
2022-12-16T12:48:45.646Z,25.00
2022-12-16T12:52:00.723Z,26.50
2022-12-16T12:55:19.562Z,26.80
2022-12-16T12:58:25.860Z,26.17
2022-12-16T13:01:33.062Z,27.87
2022-12-16T13:04:40.602Z,30.97
2022-12-16T13:07:46.823Z,28.97
2022-12-16T13:10:55.160Z,29.77
2022-12-16T13:14:01.597Z,28.07
2022-12-16T13:17:10.487Z,28.03
2022-12-16T13:20:16.983Z,28.07
2022-12-16T13:23:42.551Z,26.80
2022-12-16T13:26:49.847Z,27.17
2022-12-16T13:29:57.036Z,27.97
2022-12-16T13:33:13.236Z,27.27
2022-12-16T13:36:20.155Z,25.43
2022-12-16T13:40:01.793Z,26.83
2022-12-16T13:43:09.681Z,26.40
2022-12-16T13:46:24.561Z,27.00
2022-12-16T13:49:49.036Z,26.73
2022-12-16T13:53:13.399Z,25.13
2022-12-16T13:56:40.877Z,25.53
2022-12-16T13:59:47.987Z,25.73
2022-12-16T14:02:59.797Z,24.37
2022-12-16T14:06:06.086Z,27.20
2022-12-16T14:09:12.259Z,25.07
2022-12-16T14:12:24.435Z,27.80
2022-12-16T14:15:35.958Z,28.43
2022-12-16T14:18:44.188Z,26.60
2022-12-16T14:22:02.429Z,27.20
2022-12-16T14:25:08.445Z,28.30
2022-12-16T14:28:14.442Z,26.83
2022-12-16T14:31:33.091Z,25.93
2022-12-16T14:34:40.430Z,26.63
2022-12-16T14:37:53.426Z,26.67
2022-12-16T14:40:59.734Z,28.27
2022-12-16T14:44:05.728Z,28.53
2022-12-16T14:47:12.053Z,28.37
2022-12-16T14:50:18.308Z,28.17
2022-12-16T14:53:35.113Z,29.73
2022-12-16T14:56:42.302Z,29.23
2022-12-16T14:59:48.347Z,28.93
2022-12-16T15:02:57.969Z,27.27
2022-12-16T15:06:04.866Z,27.30
2022-12-16T15:09:22.620Z,29.20
2022-12-16T15:12:29.943Z,29.53
2022-12-16T15:15:39.565Z,27.87
2022-12-16T15:18:47.840Z,28.90
2022-12-16T15:21:54.766Z,26.87
2022-12-16T15:25:03.163Z,28.03
2022-12-16T15:28:13.537Z,30.27
2022-12-16T15:31:19.878Z,28.37
2022-12-16T15:34:45.986Z,28.00
2022-12-16T15:38:04.249Z,26.87
2022-12-16T15:41:10.767Z,26.73
2022-12-16T15:44:16.815Z,28.70
2022-12-16T15:47:23.736Z,26.57
2022-12-16T15:50:33.805Z,26.90
2022-12-16T15:53:50.928Z,24.50
2022-12-16T15:57:04.141Z,25.87
2022-12-16T16:00:18.412Z,23.73
2022-12-16T16:03:24.542Z,27.40
2022-12-16T16:06:38.281Z,34.70
2022-12-16T16:09:46.003Z,30.67
2022-12-16T16:12:52.225Z,27.77
2022-12-16T16:15:58.453Z,28.50
2022-12-16T16:19:04.414Z,28.43
2022-12-16T16:22:10.311Z,27.67
2022-12-16T16:25:16.637Z,27.43
2022-12-16T16:28:22.483Z,29.30
2022-12-16T16:31:29.493Z,26.37
2022-12-16T16:34:35.586Z,27.13
2022-12-16T16:37:41.861Z,31.50
2022-12-16T16:40:52.773Z,27.67
2022-12-16T16:43:59.168Z,29.03
2022-12-16T16:47:05.661Z,25.07
2022-12-16T16:50:16.079Z,26.30
2022-12-16T16:53:24.999Z,28.07
2022-12-16T16:56:31.626Z,26.73
2022-12-16T16:59:37.744Z,29.23
2022-12-16T17:02:44.536Z,27.80
2022-12-16T17:05:50.677Z,30.90
2022-12-16T17:08:56.917Z,28.77
2022-12-16T17:12:03.135Z,28.10
2022-12-16T17:15:09.104Z,29.80
2022-12-16T17:18:36.563Z,31.93
2022-12-16T17:21:43.545Z,32.43
2022-12-16T17:24:53.893Z,35.13
2022-12-16T17:28:02.591Z,35.53
2022-12-16T17:31:08.623Z,33.07
2022-12-16T17:34:14.441Z,32.77
2022-12-16T17:37:20.341Z,32.10
2022-12-16T17:40:26.360Z,30.50
2022-12-16T17:43:32.695Z,30.80
2022-12-16T17:46:38.922Z,30.33
2022-12-16T17:49:44.968Z,30.33
2022-12-16T17:52:51.107Z,30.90
2022-12-16T17:55:57.387Z,32.33
2022-12-16T17:59:05.830Z,32.27
2022-12-16T18:02:12.389Z,45.55
2022-12-16T18:05:18.464Z,34.20
2022-12-16T18:08:24.666Z,31.37
2022-12-16T18:11:34.592Z,33.33
2022-12-16T18:14:43.418Z,31.20
2022-12-16T18:17:49.708Z,32.00
2022-12-16T18:20:55.876Z,33.07
2022-12-16T18:24:02.185Z,30.37
2022-12-16T18:27:08.345Z,30.97
2022-12-16T18:30:14.381Z,31.57
2022-12-16T18:33:20.853Z,30.83
2022-12-16T18:36:27.140Z,33.67
2022-12-16T18:39:33.177Z,32.70
2022-12-16T18:42:39.158Z,33.17
2022-12-16T18:45:45.470Z,31.37
2022-12-16T18:48:51.587Z,33.50
2022-12-16T18:51:57.936Z,30.07
2022-12-16T18:55:03.899Z,30.23
2022-12-16T18:58:21.048Z,30.67
2022-12-16T19:01:36.394Z,29.73
2022-12-16T19:04:42.671Z,29.67
2022-12-16T19:07:48.747Z,29.83
2022-12-16T19:10:54.773Z,28.97
2022-12-16T19:14:01.018Z,28.50
2022-12-16T19:17:07.306Z,28.50
2022-12-16T19:20:13.518Z,29.57
2022-12-16T19:23:19.617Z,29.67
2022-12-16T19:26:36.470Z,30.40
2022-12-16T19:29:42.651Z,30.23
2022-12-16T19:32:48.805Z,31.00
2022-12-16T19:35:54.848Z,29.30
2022-12-16T19:39:03.001Z,29.37
2022-12-16T19:42:09.086Z,30.33
2022-12-16T19:45:14.971Z,34.43
2022-12-16T19:48:21.611Z,33.57
2022-12-16T19:51:27.819Z,32.80
2022-12-16T19:54:33.771Z,32.37
2022-12-16T19:57:39.927Z,32.30
2022-12-16T20:00:46.027Z,33.47
2022-12-16T20:03:56.501Z,33.83
2022-12-16T20:07:03.146Z,34.23
2022-12-16T20:10:09.434Z,34.23
2022-12-16T20:13:22.102Z,37.50
2022-12-16T20:16:31.359Z,37.80
2022-12-16T20:19:37.409Z,39.17
2022-12-16T20:22:43.680Z,38.20
2022-12-16T20:25:50.024Z,36.00
2022-12-16T20:28:56.028Z,35.80
2022-12-16T20:32:02.493Z,34.43
2022-12-16T20:35:08.482Z,31.83
2022-12-16T20:38:15.559Z,32.60
2022-12-16T20:41:22.972Z,33.67
2022-12-16T20:44:28.941Z,31.53
2022-12-16T20:47:45.983Z,31.17
2022-12-16T20:50:52.141Z,31.80
2022-12-16T20:54:01.877Z,32.17
2022-12-16T20:57:12.493Z,32.13
2022-12-16T21:00:19.211Z,29.43
2022-12-16T21:03:28.156Z,31.67
2022-12-16T21:06:34.105Z,29.33
2022-12-16T21:09:40.364Z,27.73
2022-12-16T21:12:46.307Z,30.40
2022-12-16T21:15:52.099Z,29.97
2022-12-16T21:18:57.866Z,31.20
2022-12-16T21:22:03.988Z,27.90
2022-12-16T21:25:10.164Z,28.80
2022-12-16T21:28:16.757Z,29.73
2022-12-16T21:31:23.163Z,31.13
2022-12-16T21:34:29.554Z,31.57
2022-12-16T21:37:35.642Z,29.30
2022-12-16T21:40:41.850Z,31.13
2022-12-16T21:43:50.809Z,28.57
2022-12-16T21:46:58.079Z,28.87
2022-12-16T21:50:11.642Z,27.47
2022-12-16T21:53:18.006Z,29.43
2022-12-16T21:56:24.534Z,27.80
2022-12-16T21:59:30.750Z,31.80
2022-12-16T22:02:37.058Z,32.43
2022-12-16T22:05:43.531Z,32.73
2022-12-16T22:08:49.411Z,32.87
2022-12-16T22:11:56.347Z,30.70
2022-12-16T22:15:02.540Z,29.10
2022-12-16T22:18:08.622Z,28.87
2022-12-16T22:21:16.467Z,29.70
2022-12-16T22:24:22.506Z,26.07
2022-12-16T22:27:28.690Z,26.40
2022-12-16T22:30:34.904Z,26.03
2022-12-16T22:33:40.865Z,25.20
2022-12-16T22:36:46.889Z,26.53
2022-12-16T22:39:53.205Z,28.80
2022-12-16T22:43:13.308Z,28.47
2022-12-16T22:46:20.080Z,28.40
2022-12-16T22:49:26.186Z,33.07
2022-12-16T22:52:31.881Z,38.63
2022-12-16T22:55:37.960Z,35.47
2022-12-16T22:58:43.874Z,32.57
2022-12-16T23:01:49.689Z,32.93
2022-12-16T23:04:55.870Z,30.33
2022-12-16T23:08:03.362Z,28.90
2022-12-16T23:11:13.114Z,27.57
2022-12-16T23:14:19.096Z,28.30
2022-12-16T23:17:25.317Z,26.27
2022-12-16T23:20:31.319Z,28.80
2022-12-16T23:23:37.704Z,26.93
2022-12-16T23:26:44.188Z,27.00
2022-12-16T23:29:50.331Z,31.03
2022-12-16T23:32:56.407Z,30.73
2022-12-16T23:36:02.588Z,32.10
2022-12-16T23:39:08.600Z,28.43
2022-12-16T23:42:15.872Z,27.03
2022-12-16T23:45:21.851Z,26.33
2022-12-16T23:48:29.012Z,25.67
2022-12-16T23:51:35.054Z,25.70
2022-12-16T23:54:41.226Z,26.17
2022-12-16T23:57:47.242Z,26.73
